createdAt,value
2022-12-24T00:01:04.642Z,13.02
2022-12-24T00:03:31.779Z,11.38
2022-12-24T00:05:58.814Z,12.23
2022-12-24T00:08:25.737Z,14.88
2022-12-24T00:10:53.399Z,13.82
2022-12-24T00:13:25.608Z,14.23
2022-12-24T00:15:52.572Z,16.37
2022-12-24T00:18:19.368Z,14.77
2022-12-24T00:20:49.362Z,12.07
2022-12-24T00:23:17.209Z,13.80
2022-12-24T00:25:44.364Z,23.48
2022-12-24T00:28:11.568Z,14.85
2022-12-24T00:30:43.566Z,22.13
2022-12-24T00:33:11.027Z,16.80
2022-12-24T00:35:39.077Z,16.35
2022-12-24T00:38:06.443Z,12.02
2022-12-24T00:40:37.284Z,14.15
2022-12-24T00:43:04.105Z,15.68
2022-12-24T00:45:30.956Z,12.85
2022-12-24T00:47:57.784Z,22.63
2022-12-24T00:50:24.724Z,20.58
2022-12-24T00:52:51.566Z,22.55
2022-12-24T00:55:18.415Z,15.48
2022-12-24T00:57:45.224Z,18.85
2022-12-24T01:00:17.315Z,27.00
2022-12-24T01:02:44.517Z,18.90
2022-12-24T01:05:12.424Z,29.33
2022-12-24T01:07:44.461Z,20.83
2022-12-24T01:10:12.939Z,22.50
2022-12-24T01:12:40.058Z,17.98
2022-12-24T01:15:07.602Z,22.30
2022-12-24T01:17:35.489Z,24.15
2022-12-24T01:20:03.218Z,25.70
2022-12-24T01:22:30.009Z,22.58
2022-12-24T01:24:56.864Z,31.60
2022-12-24T01:27:23.770Z,27.95
2022-12-24T01:29:50.568Z,24.50
2022-12-24T01:32:17.468Z,28.35
2022-12-24T01:34:44.389Z,30.40
2022-12-24T01:37:11.204Z,22.02
2022-12-24T01:39:38.021Z,24.70
2022-12-24T01:42:41.279Z,26.33
2022-12-24T01:45:47.488Z,31.30
2022-12-24T01:48:25.718Z,29.48
2022-12-24T01:50:58.546Z,22.23
2022-12-24T01:53:25.416Z,25.77
2022-12-24T01:55:52.626Z,37.85
2022-12-24T01:58:21.743Z,29.98
2022-12-24T02:00:48.703Z,30.90
2022-12-24T02:03:16.848Z,27.38
2022-12-24T02:05:52.641Z,30.10
2022-12-24T02:08:19.756Z,21.58
2022-12-24T02:10:51.243Z,33.42
2022-12-24T02:13:21.263Z,31.23
2022-12-24T02:16:23.851Z,22.85
2022-12-24T02:19:01.349Z,34.78
2022-12-24T02:21:53.791Z,21.42
2022-12-24T02:24:43.593Z,31.98
2022-12-24T02:27:28.923Z,18.90
2022-12-24T02:30:03.369Z,29.10
2022-12-24T02:32:35.952Z,32.83
2022-12-24T02:35:08.170Z,26.90
2022-12-24T02:37:41.579Z,35.40
2022-12-24T02:40:22.445Z,21.80
2022-12-24T02:42:54.127Z,35.50
2022-12-24T02:45:23.873Z,23.75
2022-12-24T02:47:52.330Z,28.05
2022-12-24T02:50:19.559Z,32.17
2022-12-24T02:52:48.284Z,29.40
2022-12-24T02:55:43.776Z,26.30
2022-12-24T02:58:16.576Z,29.38
2022-12-24T03:00:49.030Z,28.80
2022-12-24T03:03:45.229Z,34.08
2022-12-24T03:06:31.331Z,32.25
2022-12-24T03:09:15.602Z,36.30
2022-12-24T03:11:54.324Z,28.05
2022-12-24T03:14:23.231Z,34.85
2022-12-24T03:16:53.920Z,26.83
2022-12-24T03:19:22.265Z,26.08
2022-12-24T03:21:49.755Z,29.13
2022-12-24T03:24:16.594Z,34.28
2022-12-24T03:26:45.635Z,26.70
2022-12-24T03:29:12.459Z,27.00
2022-12-24T03:31:51.102Z,28.00
2022-12-24T03:34:18.942Z,29.38
2022-12-24T03:36:45.844Z,47.60
2022-12-24T03:39:12.691Z,30.00
2022-12-24T03:41:39.574Z,31.23
2022-12-24T03:44:06.401Z,27.25
2022-12-24T03:46:33.260Z,26.35
2022-12-24T03:49:00.088Z,31.90
2022-12-24T03:51:27.039Z,24.75
2022-12-24T03:53:54.355Z,36.30
2022-12-24T03:56:21.880Z,33.60
2022-12-24T03:58:48.981Z,39.53
2022-12-24T04:01:16.473Z,46.72
2022-12-24T04:03:43.894Z,39.72
2022-12-24T04:06:14.783Z,32.25
2022-12-24T04:08:41.807Z,27.30
2022-12-24T04:11:10.498Z,35.58
2022-12-24T04:13:37.723Z,40.03
2022-12-24T04:16:07.115Z,19.55
2022-12-24T04:18:34.146Z,30.88
2022-12-24T04:21:01.070Z,37.40
2022-12-24T04:23:31.416Z,31.45
2022-12-24T04:26:02.336Z,28.48
2022-12-24T04:28:30.546Z,35.22
2022-12-24T04:31:04.145Z,36.50
2022-12-24T04:33:31.351Z,32.88
2022-12-24T04:35:59.559Z,38.60
2022-12-24T04:38:26.851Z,26.27
2022-12-24T04:41:01.122Z,33.13
2022-12-24T04:43:29.101Z,38.08
2022-12-24T04:45:56.451Z,32.92
2022-12-24T04:48:23.643Z,27.00
2022-12-24T04:50:50.799Z,43.53
2022-12-24T04:53:17.664Z,32.30
2022-12-24T04:55:47.867Z,32.20
2022-12-24T04:58:14.779Z,36.55
2022-12-24T05:00:41.937Z,35.00
2022-12-24T05:03:09.104Z,34.65
2022-12-24T05:05:46.482Z,36.10
2022-12-24T05:08:13.986Z,37.67
2022-12-24T05:10:40.790Z,27.15
2022-12-24T05:13:07.656Z,31.80
2022-12-24T05:15:34.458Z,30.50
2022-12-24T05:18:01.350Z,24.48
2022-12-24T05:20:28.216Z,33.05
2022-12-24T05:23:13.580Z,42.92
2022-12-24T05:25:58.920Z,30.33
2022-12-24T05:28:25.866Z,20.45
2022-12-24T05:30:52.730Z,23.13
2022-12-24T05:33:19.544Z,27.88
2022-12-24T05:35:46.356Z,26.52
2022-12-24T05:38:13.200Z,24.73
2022-12-24T05:40:40.028Z,30.55
2022-12-24T05:43:06.824Z,25.70
2022-12-24T05:45:33.642Z,27.63
2022-12-24T05:48:00.533Z,26.77
2022-12-24T05:50:27.434Z,22.90
2022-12-24T05:52:54.225Z,28.42
2022-12-24T05:55:21.036Z,26.42
2022-12-24T05:57:47.872Z,26.65
2022-12-24T06:00:15.017Z,23.27
2022-12-24T06:02:41.915Z,25.75
2022-12-24T06:05:09.156Z,19.73
2022-12-24T06:07:35.980Z,16.08
2022-12-24T06:10:02.920Z,20.63
2022-12-24T06:12:29.768Z,29.98
2022-12-24T06:14:56.591Z,18.55
2022-12-24T06:17:23.493Z,13.93
2022-12-24T06:19:50.364Z,19.30
2022-12-24T06:22:18.158Z,21.10
2022-12-24T06:24:45.127Z,17.10
2022-12-24T06:27:11.926Z,14.35
2022-12-24T06:29:38.767Z,22.40
2022-12-24T06:32:05.709Z,15.48
2022-12-24T06:34:32.561Z,18.77
2022-12-24T06:36:59.391Z,17.67
2022-12-24T06:39:26.225Z,21.05
2022-12-24T06:41:53.079Z,14.77
2022-12-24T06:44:19.947Z,19.65
2022-12-24T06:46:46.805Z,14.93
2022-12-24T06:49:13.694Z,19.60
2022-12-24T06:51:40.536Z,17.27
2022-12-24T06:54:07.557Z,19.33
2022-12-24T06:56:34.689Z,19.02
2022-12-24T06:59:05.295Z,22.85
2022-12-24T07:01:32.683Z,24.33
2022-12-24T07:03:59.705Z,22.05
2022-12-24T07:06:29.435Z,28.20
2022-12-24T07:08:56.232Z,20.20
2022-12-24T07:11:24.931Z,23.85
2022-12-24T07:13:52.092Z,27.58
2022-12-24T07:16:19.303Z,25.30
2022-12-24T07:18:46.292Z,25.65
2022-12-24T07:21:13.131Z,26.15
2022-12-24T07:23:39.944Z,32.22
2022-12-24T07:26:07.255Z,22.83
2022-12-24T07:28:34.127Z,23.48
2022-12-24T07:31:01.196Z,31.15
2022-12-24T07:33:31.212Z,28.27
2022-12-24T07:36:06.479Z,27.33
2022-12-24T07:38:34.522Z,24.33
2022-12-24T07:41:03.796Z,30.98
2022-12-24T07:43:32.580Z,22.38
2022-12-24T07:45:59.833Z,26.05
2022-12-24T07:48:28.270Z,25.15
2022-12-24T07:50:56.807Z,23.50
2022-12-24T07:53:24.859Z,25.02
2022-12-24T07:55:51.811Z,22.15
2022-12-24T07:58:18.930Z,28.52
2022-12-24T08:00:46.043Z,29.70
2022-12-24T08:03:18.012Z,24.50
2022-12-24T08:05:45.296Z,27.90
2022-12-24T08:08:12.722Z,30.83
2022-12-24T08:10:40.738Z,29.42
2022-12-24T08:13:07.673Z,26.98
2022-12-24T08:15:34.759Z,28.67
2022-12-24T08:18:01.573Z,28.38
2022-12-24T08:20:28.431Z,28.52
2022-12-24T08:22:55.232Z,24.83
2022-12-24T08:25:22.244Z,25.52
2022-12-24T08:27:49.148Z,37.22
2022-12-24T08:30:20.813Z,33.08
2022-12-24T08:32:48.484Z,32.40
2022-12-24T08:35:15.400Z,27.05
2022-12-24T08:37:42.316Z,28.88
2022-12-24T08:40:09.951Z,44.40
2022-12-24T08:42:36.813Z,29.42
2022-12-24T08:45:03.860Z,26.50
2022-12-24T08:47:30.704Z,30.45
2022-12-24T08:49:57.521Z,33.92
2022-12-24T08:52:24.395Z,25.00
2022-12-24T08:54:51.191Z,26.05
2022-12-24T08:57:18.002Z,24.65
2022-12-24T08:59:44.785Z,26.58
2022-12-24T09:04:53.081Z,27.65
2022-12-24T09:07:19.910Z,32.00
2022-12-24T09:09:46.807Z,28.33
2022-12-24T09:12:13.648Z,26.52
2022-12-24T09:14:40.542Z,32.80
2022-12-24T09:17:07.442Z,26.23
2022-12-24T09:19:34.325Z,22.70
2022-12-24T09:22:01.256Z,26.70
2022-12-24T09:24:28.198Z,30.80
2022-12-24T09:26:57.918Z,28.92
2022-12-24T09:29:25.430Z,25.73
2022-12-24T09:31:52.382Z,30.77
2022-12-24T09:34:20.898Z,31.45
2022-12-24T09:36:49.648Z,30.52
2022-12-24T09:39:16.469Z,38.42
2022-12-24T09:42:03.576Z,27.80
2022-12-24T09:44:55.324Z,30.42
2022-12-24T09:47:49.605Z,34.17
2022-12-24T09:50:52.155Z,31.17
2022-12-24T09:53:26.581Z,24.35
2022-12-24T09:55:57.569Z,30.83
2022-12-24T09:58:41.020Z,26.00
2022-12-24T10:01:12.591Z,29.30
2022-12-24T10:03:39.865Z,29.63
2022-12-24T10:06:11.813Z,23.75
2022-12-24T10:08:41.729Z,34.08
2022-12-24T10:11:30.709Z,31.63
2022-12-24T10:14:03.930Z,26.65
2022-12-24T10:17:03.098Z,26.48
2022-12-24T10:19:51.549Z,30.77
2022-12-24T10:22:40.505Z,31.70
2022-12-24T10:25:19.997Z,36.40
2022-12-24T10:27:47.188Z,28.38
2022-12-24T10:30:19.935Z,28.30
2022-12-24T10:32:56.775Z,30.85
2022-12-24T10:35:27.058Z,34.70
2022-12-24T10:37:54.028Z,32.15
2022-12-24T10:40:43.044Z,27.13
2022-12-24T10:43:21.871Z,27.67
2022-12-24T10:45:51.799Z,26.10
2022-12-24T10:48:33.498Z,30.13
2022-12-24T10:51:04.801Z,26.20
2022-12-24T10:53:45.083Z,23.60
2022-12-24T10:56:13.980Z,19.70
2022-12-24T10:58:45.800Z,31.38
2022-12-24T11:01:14.001Z,29.17
2022-12-24T11:03:42.611Z,31.00
2022-12-24T11:06:21.357Z,24.77
2022-12-24T11:08:49.374Z,31.00
2022-12-24T11:11:20.957Z,22.48
2022-12-24T11:13:50.684Z,30.13
2022-12-24T11:16:41.134Z,23.75
2022-12-24T11:19:17.182Z,20.42
2022-12-24T11:21:44.554Z,32.78
2022-12-24T11:24:14.165Z,26.75
2022-12-24T11:26:42.996Z,37.08
2022-12-24T11:29:19.816Z,27.73
2022-12-24T11:31:47.375Z,25.25
2022-12-24T11:34:33.564Z,20.25
2022-12-24T11:37:23.316Z,28.25
2022-12-24T11:39:59.770Z,34.00
2022-12-24T11:42:38.163Z,24.25
2022-12-24T11:45:14.718Z,28.48
2022-12-24T11:47:42.058Z,22.73
2022-12-24T11:50:31.876Z,37.63
2022-12-24T11:53:04.687Z,34.67
2022-12-24T11:55:50.657Z,24.60
2022-12-24T11:58:23.518Z,24.08
2022-12-24T12:00:52.172Z,30.70
2022-12-24T12:04:14.187Z,30.05
2022-12-24T12:06:50.959Z,25.58
2022-12-24T12:09:29.260Z,27.00
2022-12-24T12:12:02.124Z,28.30
2022-12-24T12:14:35.274Z,36.45
2022-12-24T12:17:32.111Z,23.55
2022-12-24T12:20:30.712Z,31.85
2022-12-24T12:23:24.397Z,29.73
2022-12-24T12:25:55.407Z,25.85
2022-12-24T12:28:36.036Z,25.85
2022-12-24T12:31:19.599Z,27.98
2022-12-24T12:33:58.214Z,36.70
2022-12-24T12:36:32.956Z,24.08
2022-12-24T12:39:00.117Z,34.45
2022-12-24T12:41:26.982Z,26.30
2022-12-24T12:44:09.332Z,26.05
2022-12-24T12:47:07.233Z,18.73
2022-12-24T12:50:04.166Z,39.15
2022-12-24T12:52:54.508Z,28.63
2022-12-24T12:55:34.207Z,40.92
2022-12-24T12:58:04.715Z,25.55
2022-12-24T13:00:36.933Z,22.88
2022-12-24T13:03:25.914Z,39.90
2022-12-24T13:06:14.153Z,22.88
2022-12-24T13:09:08.589Z,31.23
2022-12-24T13:11:48.686Z,33.10
2022-12-24T13:14:24.672Z,34.47
2022-12-24T13:16:54.296Z,25.88
2022-12-24T13:19:38.440Z,26.73
2022-12-24T13:22:05.837Z,28.58
2022-12-24T13:24:33.299Z,28.70
2022-12-24T13:27:15.161Z,32.15
2022-12-24T13:30:09.719Z,32.22
2022-12-24T13:32:51.602Z,23.77
2022-12-24T13:35:21.564Z,31.83
2022-12-24T13:37:49.488Z,29.85
2022-12-24T13:40:28.679Z,30.70
2022-12-24T13:43:01.417Z,32.55
2022-12-24T13:45:31.900Z,25.40
2022-12-24T13:48:10.815Z,23.58
2022-12-24T13:50:47.844Z,38.95
2022-12-24T13:53:28.354Z,26.42
2022-12-24T13:55:57.799Z,29.08
2022-12-24T13:58:25.652Z,28.77
2022-12-24T14:01:01.888Z,26.55
2022-12-24T14:03:35.718Z,26.92
2022-12-24T14:06:12.000Z,22.40
2022-12-24T14:08:44.178Z,29.20
2022-12-24T14:11:12.242Z,24.87
2022-12-24T14:13:39.040Z,26.85
2022-12-24T14:16:10.319Z,29.48
2022-12-24T14:18:46.368Z,34.38
2022-12-24T14:21:24.880Z,29.85
2022-12-24T14:23:58.896Z,25.45
2022-12-24T14:26:30.813Z,34.58
2022-12-24T14:29:22.879Z,30.70
2022-12-24T14:31:53.711Z,23.70
2022-12-24T14:34:21.273Z,25.73
2022-12-24T14:36:49.385Z,22.08
2022-12-24T14:39:32.912Z,34.28
2022-12-24T14:42:13.178Z,45.97
2022-12-24T14:45:01.396Z,25.30
2022-12-24T14:47:46.190Z,21.80
2022-12-24T14:50:36.340Z,27.33
2022-12-24T14:53:10.546Z,26.80
2022-12-24T14:55:44.219Z,33.88
2022-12-24T14:58:31.878Z,27.58
2022-12-24T15:01:17.300Z,35.42
2022-12-24T15:03:44.592Z,36.03
2022-12-24T15:06:13.417Z,35.92
2022-12-24T15:08:49.139Z,30.23
2022-12-24T15:11:21.600Z,35.08
2022-12-24T15:13:54.048Z,32.67
2022-12-24T15:16:33.421Z,32.70
2022-12-24T15:19:03.414Z,37.08
2022-12-24T15:21:35.478Z,32.95
2022-12-24T15:24:02.378Z,43.53
2022-12-24T15:26:37.112Z,28.48
2022-12-24T15:29:21.206Z,32.45
2022-12-24T15:31:55.864Z,31.77
2022-12-24T15:34:28.348Z,25.52
2022-12-24T15:37:03.491Z,26.92
2022-12-24T15:39:30.934Z,31.67
2022-12-24T15:42:18.102Z,25.40
2022-12-24T15:45:04.304Z,22.48
2022-12-24T15:47:38.691Z,23.55
2022-12-24T15:50:30.472Z,32.47
2022-12-24T15:53:20.136Z,25.63
2022-12-24T15:56:00.314Z,40.65
2022-12-24T15:58:30.531Z,31.02
2022-12-24T16:01:09.263Z,27.17
2022-12-24T16:03:39.099Z,27.90
2022-12-24T16:06:11.704Z,27.63
2022-12-24T16:08:40.703Z,31.20
2022-12-24T16:11:19.259Z,24.85
2022-12-24T16:13:51.749Z,26.42
2022-12-24T16:16:22.102Z,28.75
2022-12-24T16:18:52.011Z,26.02
2022-12-24T16:21:52.435Z,26.60
2022-12-24T16:24:22.018Z,24.58
2022-12-24T16:26:48.991Z,22.85
2022-12-24T16:29:19.388Z,28.80
2022-12-24T16:31:54.123Z,31.75
2022-12-24T16:34:26.610Z,34.55
2022-12-24T16:36:53.943Z,32.85
2022-12-24T16:39:32.475Z,27.50
2022-12-24T16:42:21.350Z,26.33
2022-12-24T16:44:48.665Z,30.67
2022-12-24T16:47:35.695Z,23.95
2022-12-24T16:50:08.641Z,29.95
2022-12-24T16:52:35.710Z,25.73
2022-12-24T16:55:02.617Z,34.15
2022-12-24T16:57:29.633Z,44.53
2022-12-24T16:59:56.525Z,48.75
2022-12-24T17:02:25.353Z,42.22
2022-12-24T17:04:52.562Z,54.47
2022-12-24T17:07:21.098Z,45.58
2022-12-24T17:09:48.072Z,37.95
2022-12-24T17:12:15.700Z,41.22
2022-12-24T17:14:42.792Z,36.58
2022-12-24T17:17:25.462Z,40.53
2022-12-24T17:19:52.265Z,40.13
2022-12-24T17:22:20.200Z,47.78
2022-12-24T17:24:47.132Z,57.78
2022-12-24T17:27:14.182Z,56.58
2022-12-24T17:29:41.515Z,48.22
2022-12-24T17:32:08.505Z,53.22
2022-12-24T17:34:35.625Z,52.17
2022-12-24T17:37:02.429Z,45.35
2022-12-24T17:39:29.362Z,49.10
2022-12-24T17:41:57.194Z,45.58
2022-12-24T17:44:27.027Z,42.17
2022-12-24T17:46:54.151Z,42.08
2022-12-24T17:49:21.070Z,53.70
2022-12-24T17:51:48.055Z,41.70
2022-12-24T17:54:15.565Z,39.45
2022-12-24T17:56:42.598Z,32.13
2022-12-24T17:59:09.515Z,35.78
2022-12-24T18:01:36.691Z,45.45
2022-12-24T18:04:04.262Z,35.75
2022-12-24T18:06:31.528Z,31.77
2022-12-24T18:08:58.532Z,30.27
2022-12-24T18:11:34.766Z,48.20
2022-12-24T18:14:02.595Z,49.88
2022-12-24T18:16:37.741Z,53.55
2022-12-24T18:19:08.294Z,39.80
2022-12-24T18:21:35.377Z,48.22
2022-12-24T18:24:03.064Z,28.27
2022-12-24T18:26:31.064Z,34.75
2022-12-24T18:29:00.255Z,32.95
2022-12-24T18:31:29.826Z,44.28
2022-12-24T18:33:56.995Z,32.38
2022-12-24T18:36:24.871Z,36.97
2022-12-24T18:38:52.258Z,29.25
2022-12-24T18:41:25.276Z,33.53
2022-12-24T18:46:22.020Z,47.22
2022-12-24T18:48:50.141Z,50.92
2022-12-24T18:51:18.107Z,39.13
2022-12-24T18:53:45.252Z,42.42
2022-12-24T18:56:21.087Z,42.80
2022-12-24T18:58:48.377Z,32.10
2022-12-24T19:01:23.060Z,27.27
2022-12-24T19:03:50.365Z,31.50
2022-12-24T19:06:17.878Z,38.10
2022-12-24T19:09:01.602Z,39.28
2022-12-24T19:11:33.736Z,32.70
2022-12-24T19:14:01.647Z,34.08
2022-12-24T19:16:30.077Z,35.22
2022-12-24T19:18:57.267Z,37.13
2022-12-24T19:21:24.312Z,39.15
2022-12-24T19:23:52.002Z,36.75
2022-12-24T19:26:20.049Z,55.55
2022-12-24T19:28:47.321Z,50.65
2022-12-24T19:31:19.879Z,40.28
2022-12-24T19:33:52.145Z,35.78
2022-12-24T19:36:21.955Z,38.60
2022-12-24T19:38:48.907Z,48.63
2022-12-24T19:41:21.052Z,43.33
2022-12-24T19:43:50.552Z,36.83
2022-12-24T19:46:19.993Z,46.58
2022-12-24T19:48:51.867Z,43.03
2022-12-24T19:51:18.785Z,40.10
2022-12-24T19:53:45.973Z,44.28
2022-12-24T19:56:16.182Z,49.70
2022-12-24T19:58:43.167Z,56.17
2022-12-24T20:01:16.320Z,41.38
2022-12-24T20:03:44.434Z,45.05
2022-12-24T20:06:12.300Z,44.00
2022-12-24T20:08:39.698Z,36.03
2022-12-24T20:11:11.728Z,41.08
2022-12-24T20:13:39.842Z,46.30
2022-12-24T20:16:12.381Z,41.83
2022-12-24T20:18:39.432Z,43.70
2022-12-24T20:21:08.901Z,48.30
2022-12-24T20:23:38.409Z,33.50
2022-12-24T20:26:06.883Z,42.00
2022-12-24T20:28:36.106Z,39.47
2022-12-24T20:31:12.141Z,45.63
2022-12-24T20:33:39.807Z,44.33
2022-12-24T20:36:07.230Z,49.78
2022-12-24T20:38:34.055Z,45.67
2022-12-24T20:41:01.156Z,36.20
2022-12-24T20:43:34.061Z,38.05
2022-12-24T20:46:03.360Z,48.33
2022-12-24T20:48:31.159Z,45.92
2022-12-24T20:50:58.419Z,50.17
2022-12-24T20:53:26.016Z,45.88
2022-12-24T20:55:53.954Z,48.50
2022-12-24T20:58:21.126Z,58.28
2022-12-24T21:00:48.706Z,56.30
2022-12-24T21:03:16.377Z,53.55
2022-12-24T21:05:43.499Z,46.78
2022-12-24T21:08:11.639Z,39.42
2022-12-24T21:10:38.931Z,48.00
2022-12-24T21:13:06.209Z,41.28
2022-12-24T21:15:39.835Z,37.97
2022-12-24T21:18:12.018Z,46.17
2022-12-24T21:20:40.165Z,47.78
2022-12-24T21:23:07.417Z,48.63
2022-12-24T21:25:35.312Z,47.60
2022-12-24T21:28:02.129Z,54.63
2022-12-24T21:30:29.044Z,45.05
2022-12-24T21:32:55.862Z,45.58
2022-12-24T21:35:22.704Z,48.30
2022-12-24T21:37:49.525Z,39.03
2022-12-24T21:40:16.388Z,44.63
2022-12-24T21:42:43.245Z,46.88
2022-12-24T21:45:10.967Z,44.13
2022-12-24T21:47:38.334Z,43.28
2022-12-24T21:50:28.263Z,47.90
2022-12-24T21:53:19.531Z,38.72
2022-12-24T21:55:46.705Z,39.83
2022-12-24T21:58:13.650Z,43.33
2022-12-24T22:00:40.633Z,40.38
2022-12-24T22:03:07.707Z,36.78
2022-12-24T22:05:35.454Z,47.28
2022-12-24T22:08:21.180Z,41.10
2022-12-24T22:11:06.668Z,44.47
2022-12-24T22:13:33.514Z,45.17
2022-12-24T22:16:00.342Z,39.05
2022-12-24T22:18:27.440Z,41.22
2022-12-24T22:20:54.838Z,35.42
2022-12-24T22:23:21.680Z,44.20
2022-12-24T22:25:48.567Z,35.55
2022-12-24T22:28:15.457Z,40.92
2022-12-24T22:30:50.769Z,62.33
2022-12-24T22:33:17.577Z,43.80
2022-12-24T22:35:44.415Z,41.47
2022-12-24T22:38:13.656Z,43.17
2022-12-24T22:40:40.687Z,30.88
2022-12-24T22:43:07.591Z,35.47
2022-12-24T22:45:34.497Z,36.97
2022-12-24T22:48:01.284Z,33.75
2022-12-24T22:50:34.923Z,40.28
2022-12-24T22:53:01.729Z,37.05
2022-12-24T22:55:28.565Z,46.17
2022-12-24T22:58:03.143Z,44.42
2022-12-24T23:00:43.312Z,39.60
2022-12-24T23:03:11.402Z,40.28
2022-12-24T23:05:38.931Z,34.95
2022-12-24T23:08:06.240Z,42.00
2022-12-24T23:10:33.219Z,40.65
2022-12-24T23:13:20.596Z,44.35
2022-12-24T23:15:47.550Z,32.78
2022-12-24T23:18:14.668Z,46.25
2022-12-24T23:20:45.385Z,38.53
2022-12-24T23:23:12.845Z,38.72
2022-12-24T23:25:39.876Z,36.38
2022-12-24T23:28:07.155Z,33.53
2022-12-24T23:30:34.029Z,44.28
2022-12-24T23:33:01.022Z,38.38
2022-12-24T23:35:27.836Z,37.78
2022-12-24T23:37:54.852Z,36.47
2022-12-24T23:40:21.746Z,40.72
2022-12-24T23:42:48.709Z,35.38
2022-12-24T23:45:15.555Z,39.30
2022-12-24T23:47:42.828Z,45.67
2022-12-24T23:50:10.669Z,31.75
2022-12-24T23:52:38.463Z,39.13
2022-12-24T23:55:06.452Z,37.80
2022-12-24T23:57:33.295Z,40.08
